createdAt,value
2015-09-22T00:00:16.539Z,98428
2015-09-22T00:00:34.902Z,98431
2015-09-22T00:00:53.277Z,98428
2015-09-22T00:01:11.605Z,98431
2015-09-22T00:01:29.965Z,98422
2015-09-22T00:01:48.326Z,98425
2015-09-22T00:02:06.670Z,98428
2015-09-22T00:02:25.029Z,98428
2015-09-22T00:02:43.391Z,98425
2015-09-22T00:03:01.735Z,98420
2015-09-22T00:03:20.095Z,98428
2015-09-22T00:03:38.441Z,98428
2015-09-22T00:03:56.801Z,98425
2015-09-22T00:04:15.160Z,98434
2015-09-22T00:04:33.504Z,98431
2015-09-22T00:04:51.865Z,98417
2015-09-22T00:05:10.225Z,98425
2015-09-22T00:05:28.584Z,98428
2015-09-22T00:05:46.931Z,98414
2015-09-22T00:06:04.634Z,98422
2015-09-22T00:06:22.993Z,98422
2015-09-22T00:06:41.340Z,98422
2015-09-22T00:06:59.699Z,98422
2015-09-22T00:07:18.060Z,98428
2015-09-22T00:07:36.450Z,98420
2015-09-22T00:07:54.155Z,98420
2015-09-22T00:08:12.517Z,98411
2015-09-22T00:08:30.719Z,98422
2015-09-22T00:08:48.332Z,98414
2015-09-22T00:09:06.801Z,98420
2015-09-22T00:09:25.332Z,98422
2015-09-22T00:09:43.695Z,98420
2015-09-22T00:10:02.038Z,98414
2015-09-22T00:10:20.398Z,98417
2015-09-22T00:10:38.757Z,98420
2015-09-22T00:10:57.119Z,98417
2015-09-22T00:11:15.463Z,98417
2015-09-22T00:11:33.823Z,98422
2015-09-22T00:11:52.185Z,98414
2015-09-22T00:12:10.669Z,98425
2015-09-22T00:12:29.029Z,98420
2015-09-22T00:12:47.390Z,98420
2015-09-22T00:13:05.593Z,98411
2015-09-22T00:13:23.953Z,98414
2015-09-22T00:13:42.312Z,98422
2015-09-22T00:14:00.674Z,98417
2015-09-22T00:14:19.018Z,98414
2015-09-22T00:14:36.752Z,98411
2015-09-22T00:14:55.255Z,98414
2015-09-22T00:15:13.740Z,98420
2015-09-22T00:15:31.443Z,98417
2015-09-22T00:15:49.804Z,98411
2015-09-22T00:16:08.164Z,98411
2015-09-22T00:16:26.523Z,98403
2015-09-22T00:16:44.867Z,98414
2015-09-22T00:17:03.229Z,98414
2015-09-22T00:17:21.589Z,98406
2015-09-22T00:17:39.948Z,98400
2015-09-22T00:17:58.294Z,98406
2015-09-22T00:18:16.653Z,98408
2015-09-22T00:18:35.012Z,98400
2015-09-22T00:18:53.376Z,98408
2015-09-22T00:19:11.720Z,98403
2015-09-22T00:19:30.079Z,98406
2015-09-22T00:19:48.438Z,98408
2015-09-22T00:20:06.800Z,98408
2015-09-22T00:20:25.159Z,98403
2015-09-22T00:20:43.518Z,98403
2015-09-22T00:21:01.882Z,98406
2015-09-22T00:21:20.226Z,98397
2015-09-22T00:21:38.585Z,98394
2015-09-22T00:21:56.931Z,98403
2015-09-22T00:22:15.290Z,98406
2015-09-22T00:22:33.649Z,98400
2015-09-22T00:22:52.040Z,98406
2015-09-22T00:23:10.418Z,98403
2015-09-22T00:23:28.777Z,98397
2015-09-22T00:23:47.137Z,98389
2015-09-22T00:24:05.498Z,98400
2015-09-22T00:24:23.858Z,98391
2015-09-22T00:24:42.217Z,98386
2015-09-22T00:24:59.907Z,98389
2015-09-22T00:25:18.251Z,98386
2015-09-22T00:25:36.611Z,98391
2015-09-22T00:25:54.970Z,98386
2015-09-22T00:26:13.316Z,98389
2015-09-22T00:26:31.691Z,98391
2015-09-22T00:26:50.034Z,98391
2015-09-22T00:27:08.381Z,98386
2015-09-22T00:27:26.741Z,98383
2015-09-22T00:27:45.100Z,98386
2015-09-22T00:28:03.448Z,98391
2015-09-22T00:28:21.807Z,98386
2015-09-22T00:28:40.166Z,98389
2015-09-22T00:28:58.526Z,98380
2015-09-22T00:29:16.872Z,98374
2015-09-22T00:29:35.231Z,98372
2015-09-22T00:29:53.575Z,98380
2015-09-22T00:30:11.296Z,98380
2015-09-22T00:30:29.640Z,98372
2015-09-22T00:30:48.016Z,98369
2015-09-22T00:31:06.065Z,98380
2015-09-22T00:31:24.268Z,98377
2015-09-22T00:31:42.315Z,98369
2015-09-22T00:32:00.671Z,98369
2015-09-22T00:32:18.721Z,98380
2015-09-22T00:32:36.924Z,98363
2015-09-22T00:32:55.299Z,98363
2015-09-22T00:33:13.740Z,98363
2015-09-22T00:33:32.146Z,98369
2015-09-22T00:33:50.615Z,98374
2015-09-22T00:34:08.977Z,98380
2015-09-22T00:34:26.680Z,98369
2015-09-22T00:34:45.055Z,98374
2015-09-22T00:35:03.384Z,98380
2015-09-22T00:35:21.745Z,98377
2015-09-22T00:35:40.104Z,98366
2015-09-22T00:35:57.167Z,98369
2015-09-22T00:36:15.515Z,98377
2015-09-22T00:36:33.874Z,98372
2015-09-22T00:36:52.233Z,98377
2015-09-22T00:37:10.577Z,98374
2015-09-22T00:37:28.938Z,98380
2015-09-22T00:37:47.298Z,98357
2015-09-22T00:38:05.642Z,98366
2015-09-22T00:38:24.003Z,98380
2015-09-22T00:38:42.347Z,98374
2015-09-22T00:39:00.065Z,98366
2015-09-22T00:39:18.412Z,98374
2015-09-22T00:39:36.772Z,98369
2015-09-22T00:39:55.131Z,98377
2015-09-22T00:40:13.475Z,98374
2015-09-22T00:40:30.525Z,98372
2015-09-22T00:40:48.884Z,98366
2015-09-22T00:41:07.228Z,98363
2015-09-22T00:41:25.590Z,98366
2015-09-22T00:41:43.965Z,98366
2015-09-22T00:42:02.293Z,98363
2015-09-22T00:42:20.656Z,98369
2015-09-22T00:42:38.343Z,98363
2015-09-22T00:42:56.702Z,98360
2015-09-22T00:43:15.077Z,98363
2015-09-22T00:43:33.409Z,98360
2015-09-22T00:43:51.768Z,98357
2015-09-22T00:44:10.127Z,98355
2015-09-22T00:44:28.489Z,98352
2015-09-22T00:44:46.832Z,98355
2015-09-22T00:45:05.192Z,98363
2015-09-22T00:45:23.553Z,98355
2015-09-22T00:45:41.897Z,98352
2015-09-22T00:46:00.256Z,98352
2015-09-22T00:46:18.616Z,98346
2015-09-22T00:46:36.979Z,98357
2015-09-22T00:46:55.323Z,98349
2015-09-22T00:47:13.682Z,98340
2015-09-22T00:47:32.028Z,98343
2015-09-22T00:47:50.231Z,98346
2015-09-22T00:48:08.590Z,98349
2015-09-22T00:48:26.953Z,98340
2015-09-22T00:48:45.297Z,98346
2015-09-22T00:49:03.656Z,98340
2015-09-22T00:49:22.000Z,98352
2015-09-22T00:49:40.362Z,98338
2015-09-22T00:49:58.721Z,98343
2015-09-22T00:50:17.081Z,98346
2015-09-22T00:50:35.459Z,98340
2015-09-22T00:50:53.787Z,98346
2015-09-22T00:51:12.146Z,98340
2015-09-22T00:51:29.851Z,98335
2015-09-22T00:51:48.195Z,98340
2015-09-22T00:52:06.555Z,98338
2015-09-22T00:52:24.900Z,98340
2015-09-22T00:52:43.260Z,98338
2015-09-22T00:53:01.619Z,98338
2015-09-22T00:53:19.963Z,98340
2015-09-22T00:53:38.325Z,98335
2015-09-22T00:53:56.028Z,98333
2015-09-22T00:54:14.388Z,98340
2015-09-22T00:54:32.750Z,98335
2015-09-22T00:54:51.094Z,98324
2015-09-22T00:55:09.453Z,98330
2015-09-22T00:55:27.284Z,98330
2015-09-22T00:55:45.628Z,98322
2015-09-22T00:56:03.987Z,98335
2015-09-22T00:56:22.191Z,98319
2015-09-22T00:56:40.553Z,98327
2015-09-22T00:56:58.912Z,98322
2015-09-22T00:57:17.256Z,98327
2015-09-22T00:57:35.617Z,98322
2015-09-22T00:57:53.977Z,98322
2015-09-22T00:58:12.336Z,98322
2015-09-22T00:58:30.683Z,98322
2015-09-22T00:58:48.386Z,98319
2015-09-22T00:59:06.745Z,98327
2015-09-22T00:59:25.105Z,98322
2015-09-22T00:59:43.467Z,98325
2015-09-22T01:00:01.827Z,98327
2015-09-22T01:00:20.186Z,98333
2015-09-22T01:00:38.533Z,98325
2015-09-22T01:00:56.236Z,98316
2015-09-22T01:01:14.595Z,98327
2015-09-22T01:01:32.957Z,98322
2015-09-22T01:01:51.316Z,98322
2015-09-22T01:02:09.660Z,98325
2015-09-22T01:02:28.019Z,98325
2015-09-22T01:02:46.381Z,98330
2015-09-22T01:03:04.085Z,98319
2015-09-22T01:03:22.444Z,98325
2015-09-22T01:03:40.790Z,98327
2015-09-22T01:03:59.149Z,98322
2015-09-22T01:04:17.508Z,98333
2015-09-22T01:04:35.871Z,98322
2015-09-22T01:04:54.230Z,98325
2015-09-22T01:05:12.433Z,98316
2015-09-22T01:05:30.793Z,98327
2015-09-22T01:05:49.140Z,98338
2015-09-22T01:06:07.500Z,98322
2015-09-22T01:06:25.859Z,98330
2015-09-22T01:06:44.221Z,98319
2015-09-22T01:07:02.580Z,98325
2015-09-22T01:07:20.924Z,98330
2015-09-22T01:07:39.286Z,98328
2015-09-22T01:07:57.645Z,98322
2015-09-22T01:08:16.005Z,98325
2015-09-22T01:08:34.366Z,98328
2015-09-22T01:08:52.069Z,98328
2015-09-22T01:09:10.413Z,98316
2015-09-22T01:09:28.772Z,98328
2015-09-22T01:09:47.135Z,98322
2015-09-22T01:10:05.494Z,98325
2015-09-22T01:10:23.854Z,98316
2015-09-22T01:10:42.200Z,98328
2015-09-22T01:11:00.560Z,98325
2015-09-22T01:11:18.919Z,98316
2015-09-22T01:11:37.405Z,98328
2015-09-22T01:11:55.765Z,98319
2015-09-22T01:12:14.140Z,98316
2015-09-22T01:12:32.484Z,98316
2015-09-22T01:12:50.831Z,98313
2015-09-22T01:13:09.191Z,98328
2015-09-22T01:13:26.894Z,98316
2015-09-22T01:13:44.599Z,98322
2015-09-22T01:14:02.958Z,98322
2015-09-22T01:14:21.302Z,98311
2015-09-22T01:14:39.664Z,98319
2015-09-22T01:14:58.149Z,98308
2015-09-22T01:15:16.508Z,98316
2015-09-22T01:15:34.868Z,98322
2015-09-22T01:15:53.229Z,98322
2015-09-22T01:16:11.588Z,98311
2015-09-22T01:16:29.948Z,98308
2015-09-22T01:16:48.310Z,98305
2015-09-22T01:17:06.654Z,98308
2015-09-22T01:17:25.013Z,98316
2015-09-22T01:17:42.735Z,98308
2015-09-22T01:18:01.094Z,98308
2015-09-22T01:18:19.438Z,98313
2015-09-22T01:18:37.797Z,98313
2015-09-22T01:18:56.159Z,98316
2015-09-22T01:19:14.518Z,98296
2015-09-22T01:19:32.878Z,98305
2015-09-22T01:19:51.224Z,98308
2015-09-22T01:20:09.584Z,98305
2015-09-22T01:20:27.943Z,98308
2015-09-22T01:20:46.305Z,98311
2015-09-22T01:21:04.665Z,98316
2015-09-22T01:21:22.368Z,98316
2015-09-22T01:21:40.727Z,98308
2015-09-22T01:21:59.214Z,98313
2015-09-22T01:22:17.573Z,98316
2015-09-22T01:22:35.932Z,98311
2015-09-22T01:22:54.420Z,98313
2015-09-22T01:23:12.779Z,98319
2015-09-22T01:23:31.139Z,98305
2015-09-22T01:23:49.501Z,98296
2015-09-22T01:24:07.860Z,98302
2015-09-22T01:24:26.220Z,98302
2015-09-22T01:24:44.563Z,98308
2015-09-22T01:25:02.926Z,98308
2015-09-22T01:25:21.285Z,98311
2015-09-22T01:25:39.645Z,98305
2015-09-22T01:25:58.007Z,98316
2015-09-22T01:26:16.366Z,98311
2015-09-22T01:26:34.726Z,98302
2015-09-22T01:26:53.071Z,98311
2015-09-22T01:27:11.275Z,98302
2015-09-22T01:27:28.978Z,98302
2015-09-22T01:27:47.337Z,98311
2015-09-22T01:28:05.684Z,98316
2015-09-22T01:28:24.043Z,98313
2015-09-22T01:28:42.403Z,98311
2015-09-22T01:29:00.765Z,98325
2015-09-22T01:29:19.109Z,98325
2015-09-22T01:29:37.468Z,98319
2015-09-22T01:29:55.173Z,98313
2015-09-22T01:30:13.673Z,98319
2015-09-22T01:30:32.017Z,98313
2015-09-22T01:30:50.376Z,98314
2015-09-22T01:31:08.739Z,98319
2015-09-22T01:31:27.098Z,98319
2015-09-22T01:31:45.457Z,98305
2015-09-22T01:32:03.148Z,98308
2015-09-22T01:32:21.507Z,98311
2015-09-22T01:32:39.867Z,98319
2015-09-22T01:32:58.228Z,98308
2015-09-22T01:33:16.587Z,98322
2015-09-22T01:33:35.072Z,98302
2015-09-22T01:33:52.775Z,98305
2015-09-22T01:34:11.138Z,98299
2015-09-22T01:34:29.498Z,98308
2015-09-22T01:34:47.857Z,98308
2015-09-22T01:35:06.203Z,98299
2015-09-22T01:35:24.562Z,98305
2015-09-22T01:35:42.922Z,98299
2015-09-22T01:36:01.284Z,98305
2015-09-22T01:36:19.643Z,98305
2015-09-22T01:36:38.003Z,98297
2015-09-22T01:36:56.346Z,98294
2015-09-22T01:37:14.709Z,98302
2015-09-22T01:37:33.068Z,98296
2015-09-22T01:37:51.303Z,98297
2015-09-22T01:38:09.644Z,98305
2015-09-22T01:38:27.712Z,98294
2015-09-22T01:38:45.759Z,98305
2015-09-22T01:39:04.120Z,98305
2015-09-22T01:39:23.073Z,98305
2015-09-22T01:39:40.729Z,98302
2015-09-22T01:39:58.795Z,98300
2015-09-22T01:40:17.172Z,98302
2015-09-22T01:40:35.500Z,98305
2015-09-22T01:40:53.859Z,98302
2015-09-22T01:41:12.223Z,98302
2015-09-22T01:41:30.582Z,98299
2015-09-22T01:41:48.285Z,98299
2015-09-22T01:42:06.647Z,98299
2015-09-22T01:42:25.006Z,98297
2015-09-22T01:42:43.350Z,98297
2015-09-22T01:43:01.709Z,98297
2015-09-22T01:43:20.103Z,98302
2015-09-22T01:43:38.306Z,98302
2015-09-22T01:43:56.509Z,98300
2015-09-22T01:44:14.856Z,98305
2015-09-22T01:44:33.215Z,98302
2015-09-22T01:44:51.575Z,98305
2015-09-22T01:45:09.936Z,98305
2015-09-22T01:45:28.311Z,98294
2015-09-22T01:45:46.655Z,98305
2015-09-22T01:46:04.998Z,98294
2015-09-22T01:46:23.361Z,98300
2015-09-22T01:46:41.720Z,98299
2015-09-22T01:47:00.080Z,98294
2015-09-22T01:47:18.442Z,98297
2015-09-22T01:47:36.801Z,98285
2015-09-22T01:47:55.145Z,98297
2015-09-22T01:48:13.507Z,98288
2015-09-22T01:48:31.867Z,98291
2015-09-22T01:48:50.226Z,98283
2015-09-22T01:49:08.570Z,98285
2015-09-22T01:49:26.932Z,98285
2015-09-22T01:49:45.307Z,98283
2015-09-22T01:50:03.667Z,98283
2015-09-22T01:50:22.012Z,98291
2015-09-22T01:50:40.372Z,98285
2015-09-22T01:50:58.731Z,98291
2015-09-22T01:51:17.092Z,98288
2015-09-22T01:51:35.451Z,98280
2015-09-22T01:51:53.795Z,98280
2015-09-22T01:52:12.154Z,98280
2015-09-22T01:52:30.514Z,98285
2015-09-22T01:52:48.874Z,98280
2015-09-22T01:53:07.233Z,98275
2015-09-22T01:53:25.436Z,98272
2015-09-22T01:53:43.796Z,98283
2015-09-22T01:54:02.155Z,98272
2015-09-22T01:54:20.515Z,98280
2015-09-22T01:54:38.875Z,98280
2015-09-22T01:54:57.219Z,98275
2015-09-22T01:55:14.922Z,98280
2015-09-22T01:55:33.282Z,98272
2015-09-22T01:55:51.641Z,98275
2015-09-22T01:56:10.001Z,98283
2015-09-22T01:56:28.347Z,98280
2015-09-22T01:56:46.722Z,98283
2015-09-22T01:57:05.065Z,98272
2015-09-22T01:57:23.427Z,98269
2015-09-22T01:57:41.786Z,98280
2015-09-22T01:58:00.145Z,98275
2015-09-22T01:58:17.849Z,98275
2015-09-22T01:58:35.554Z,98275
2015-09-22T01:58:53.913Z,98283
2015-09-22T01:59:12.288Z,98275
2015-09-22T01:59:30.633Z,98285
2015-09-22T01:59:48.977Z,98275
2015-09-22T02:00:07.336Z,98285
2015-09-22T02:00:25.698Z,98269
2015-09-22T02:00:44.058Z,98272
2015-09-22T02:01:02.417Z,98285
2015-09-22T02:01:20.776Z,98269
2015-09-22T02:01:39.139Z,98275
2015-09-22T02:01:57.483Z,98269
2015-09-22T02:02:15.842Z,98272
2015-09-22T02:02:33.672Z,98275
2015-09-22T02:02:51.375Z,98269
2015-09-22T02:03:09.735Z,98269
2015-09-22T02:03:28.097Z,98272
2015-09-22T02:03:45.800Z,98280
2015-09-22T02:04:04.159Z,98280
2015-09-22T02:04:22.506Z,98272
2015-09-22T02:04:40.866Z,98266
2015-09-22T02:04:59.225Z,98252
2015-09-22T02:05:17.584Z,98269
2015-09-22T02:05:35.946Z,98269
2015-09-22T02:05:54.305Z,98261
2015-09-22T02:06:12.008Z,98269
2015-09-22T02:06:30.371Z,98264
2015-09-22T02:06:48.730Z,98269
2015-09-22T02:07:06.417Z,98269
2015-09-22T02:07:24.795Z,98275
2015-09-22T02:07:43.155Z,98264
2015-09-22T02:08:01.514Z,98264
2015-09-22T02:08:19.217Z,98264
2015-09-22T02:08:37.564Z,98258
2015-09-22T02:08:55.923Z,98264
2015-09-22T02:09:14.283Z,98250
2015-09-22T02:09:32.644Z,98266
2015-09-22T02:09:51.004Z,98258
2015-09-22T02:10:09.347Z,98264
2015-09-22T02:10:27.711Z,98264
2015-09-22T02:10:46.070Z,98261
2015-09-22T02:11:03.773Z,98258
2015-09-22T02:11:22.133Z,98252
2015-09-22T02:11:40.478Z,98258
2015-09-22T02:11:58.697Z,98264
2015-09-22T02:12:17.041Z,98252
2015-09-22T02:12:35.402Z,98258
2015-09-22T02:12:53.762Z,98258
2015-09-22T02:13:12.121Z,98250
2015-09-22T02:13:30.483Z,98258
2015-09-22T02:13:48.843Z,98255
2015-09-22T02:14:07.202Z,98258
2015-09-22T02:14:25.405Z,98255
2015-09-22T02:14:43.752Z,98258
2015-09-22T02:15:02.111Z,98252
2015-09-22T02:15:20.486Z,98264
2015-09-22T02:15:38.849Z,98247
2015-09-22T02:15:57.208Z,98258
2015-09-22T02:16:15.567Z,98241
2015-09-22T02:16:33.930Z,98252
2015-09-22T02:16:52.289Z,98252
2015-09-22T02:17:10.649Z,98252
2015-09-22T02:17:27.695Z,98264
2015-09-22T02:17:46.041Z,98255
2015-09-22T02:18:04.401Z,98247
2015-09-22T02:18:22.760Z,98252
2015-09-22T02:18:41.122Z,98252
2015-09-22T02:18:59.482Z,98244
2015-09-22T02:19:17.841Z,98244
2015-09-22T02:19:36.203Z,98250
2015-09-22T02:19:54.563Z,98255
2015-09-22T02:20:12.266Z,98264
2015-09-22T02:20:30.625Z,98250
2015-09-22T02:20:48.987Z,98247
2015-09-22T02:21:07.346Z,98258
2015-09-22T02:21:25.690Z,98244
2015-09-22T02:21:44.052Z,98252
2015-09-22T02:22:02.412Z,98255
2015-09-22T02:22:20.771Z,98255
2015-09-22T02:22:39.118Z,98255
2015-09-22T02:22:57.477Z,98252
2015-09-22T02:23:15.836Z,98258
2015-09-22T02:23:34.198Z,98261
2015-09-22T02:23:52.542Z,98250
2015-09-22T02:24:10.901Z,98244
2015-09-22T02:24:29.260Z,98250
2015-09-22T02:24:47.623Z,98250
2015-09-22T02:25:05.982Z,98247
2015-09-22T02:25:24.341Z,98250
2015-09-22T02:25:42.704Z,98247
2015-09-22T02:26:01.048Z,98250
2015-09-22T02:26:19.407Z,98244
2015-09-22T02:26:37.769Z,98255
2015-09-22T02:26:56.144Z,98247
2015-09-22T02:27:14.488Z,98244
2015-09-22T02:27:32.847Z,98247
2015-09-22T02:27:51.193Z,98252
2015-09-22T02:28:09.553Z,98241
2015-09-22T02:28:27.912Z,98250
2015-09-22T02:28:46.274Z,98250
2015-09-22T02:29:04.649Z,98255
2015-09-22T02:29:23.009Z,98258
2015-09-22T02:29:41.355Z,98250
2015-09-22T02:29:59.715Z,98250
2015-09-22T02:30:18.074Z,98247
2015-09-22T02:30:36.434Z,98244
2015-09-22T02:30:54.796Z,98252
2015-09-22T02:31:13.155Z,98247
2015-09-22T02:31:31.515Z,98244
2015-09-22T02:31:49.860Z,98252
2015-09-22T02:32:08.235Z,98241
2015-09-22T02:32:26.579Z,98250
2015-09-22T02:32:44.942Z,98255
2015-09-22T02:33:03.301Z,98250
2015-09-22T02:33:21.660Z,98241
2015-09-22T02:33:40.020Z,98247
2015-09-22T02:33:58.365Z,98250
2015-09-22T02:34:16.725Z,98244
2015-09-22T02:34:35.084Z,98252
2015-09-22T02:34:53.448Z,98252
2015-09-22T02:35:11.807Z,98250
2015-09-22T02:35:30.166Z,98247
2015-09-22T02:35:48.528Z,98244
2015-09-22T02:36:06.887Z,98255
2015-09-22T02:36:25.246Z,98238
2015-09-22T02:36:43.606Z,98252
2015-09-22T02:37:01.967Z,98252
2015-09-22T02:37:20.311Z,98247
2015-09-22T02:37:38.670Z,98252
2015-09-22T02:37:57.034Z,98258
2015-09-22T02:38:14.752Z,98252
2015-09-22T02:38:32.440Z,98258
2015-09-22T02:38:50.801Z,98252
2015-09-22T02:39:09.161Z,98258
2015-09-22T02:39:27.520Z,98241
2015-09-22T02:39:45.895Z,98252
2015-09-22T02:40:03.586Z,98250
2015-09-22T02:40:21.273Z,98241
2015-09-22T02:40:39.773Z,98252
2015-09-22T02:40:58.135Z,98250
2015-09-22T02:41:16.479Z,98247
2015-09-22T02:41:34.854Z,98252
2015-09-22T02:41:53.200Z,98244
2015-09-22T02:42:11.559Z,98247
2015-09-22T02:42:29.106Z,98258
2015-09-22T02:42:47.466Z,98247
2015-09-22T02:43:05.812Z,98252
2015-09-22T02:43:24.172Z,98255
2015-09-22T02:43:42.531Z,98252
2015-09-22T02:44:00.893Z,98258
2015-09-22T02:44:19.253Z,98264
2015-09-22T02:44:37.597Z,98255
2015-09-22T02:44:55.959Z,98252
2015-09-22T02:45:14.318Z,98258
2015-09-22T02:45:32.678Z,98250
2015-09-22T02:45:51.037Z,98264
2015-09-22T02:46:09.398Z,98255
2015-09-22T02:46:27.758Z,98258
2015-09-22T02:46:46.102Z,98255
2015-09-22T02:47:04.464Z,98261
2015-09-22T02:47:22.823Z,98250
2015-09-22T02:47:41.183Z,98252
2015-09-22T02:47:59.544Z,98261
2015-09-22T02:48:17.903Z,98255
2015-09-22T02:48:36.263Z,98261
2015-09-22T02:48:54.622Z,98264
2015-09-22T02:49:12.328Z,98258
2015-09-22T02:49:30.672Z,98258
2015-09-22T02:49:49.047Z,98252
2015-09-22T02:50:07.394Z,98269
2015-09-22T02:50:25.753Z,98264
2015-09-22T02:50:44.113Z,98267
2015-09-22T02:51:02.475Z,98252
2015-09-22T02:51:20.834Z,98264
2015-09-22T02:51:38.537Z,98258
2015-09-22T02:51:56.897Z,98264
2015-09-22T02:52:15.259Z,98261
2015-09-22T02:52:33.619Z,98261
2015-09-22T02:52:51.978Z,98253
2015-09-22T02:53:10.325Z,98255
2015-09-22T02:53:28.700Z,98264
2015-09-22T02:53:47.043Z,98258
2015-09-22T02:54:05.406Z,98258
2015-09-22T02:54:23.750Z,98252
2015-09-22T02:54:42.109Z,98244
2015-09-22T02:55:00.468Z,98252
2015-09-22T02:55:18.830Z,98252
2015-09-22T02:55:37.189Z,98252
2015-09-22T02:55:55.548Z,98250
2015-09-22T02:56:13.894Z,98252
2015-09-22T02:56:32.254Z,98244
2015-09-22T02:56:50.613Z,98241
2015-09-22T02:57:08.975Z,98255
2015-09-22T02:57:27.319Z,98238
2015-09-22T02:57:45.678Z,98241
2015-09-22T02:58:04.038Z,98247
2015-09-22T02:58:21.744Z,98247
2015-09-22T02:58:40.103Z,98252
2015-09-22T02:58:58.447Z,98244
2015-09-22T02:59:16.807Z,98250
2015-09-22T02:59:35.011Z,98247
2015-09-22T02:59:53.386Z,98244
2015-09-22T03:00:11.729Z,98247
2015-09-22T03:00:30.089Z,98250
2015-09-22T03:00:48.448Z,98255
2015-09-22T03:01:06.792Z,98247
2015-09-22T03:01:25.152Z,98241
2015-09-22T03:01:43.512Z,98238
2015-09-22T03:02:01.871Z,98250
2015-09-22T03:02:20.231Z,98236
2015-09-22T03:02:38.591Z,98238
2015-09-22T03:02:56.950Z,98244
2015-09-22T03:03:15.310Z,98230
2015-09-22T03:03:33.670Z,98238
2015-09-22T03:03:52.014Z,98244
2015-09-22T03:04:09.720Z,98238
2015-09-22T03:04:28.079Z,98238
2015-09-22T03:04:46.438Z,98233
2015-09-22T03:05:04.798Z,98227
2015-09-22T03:05:23.159Z,98236
2015-09-22T03:05:41.503Z,98235
2015-09-22T03:05:59.862Z,98227
2015-09-22T03:06:18.224Z,98236
2015-09-22T03:06:36.583Z,98227
2015-09-22T03:06:54.942Z,98227
2015-09-22T03:07:13.304Z,98227
2015-09-22T03:07:31.648Z,98219
2015-09-22T03:07:50.007Z,98227
2015-09-22T03:08:08.366Z,98230
2015-09-22T03:08:26.729Z,98224
2015-09-22T03:08:45.072Z,98227
2015-09-22T03:09:03.432Z,98219
2015-09-22T03:09:21.793Z,98219
2015-09-22T03:09:40.137Z,98227
2015-09-22T03:09:58.496Z,98224
2015-09-22T03:10:16.859Z,98230
2015-09-22T03:10:35.218Z,98233
2015-09-22T03:10:53.577Z,98224
2015-09-22T03:11:11.937Z,98219
2015-09-22T03:11:30.298Z,98224
2015-09-22T03:11:48.642Z,98210
2015-09-22T03:12:07.001Z,98219
2015-09-22T03:12:25.364Z,98219
2015-09-22T03:12:43.723Z,98219
2015-09-22T03:13:02.082Z,98219
2015-09-22T03:13:20.427Z,98224
2015-09-22T03:13:38.802Z,98219
2015-09-22T03:13:57.146Z,98213
2015-09-22T03:14:15.505Z,98219
2015-09-22T03:14:33.868Z,98204
2015-09-22T03:14:52.211Z,98210
2015-09-22T03:15:09.915Z,98207
2015-09-22T03:15:28.277Z,98202
2015-09-22T03:15:46.636Z,98224
2015-09-22T03:16:04.996Z,98207
2015-09-22T03:16:23.482Z,98213
2015-09-22T03:16:41.841Z,98207
2015-09-22T03:17:00.201Z,98213
2015-09-22T03:17:17.904Z,98213
2015-09-22T03:17:36.266Z,98207
2015-09-22T03:17:54.626Z,98202
2015-09-22T03:18:12.969Z,98207
2015-09-22T03:18:31.332Z,98207
2015-09-22T03:18:49.691Z,98210
2015-09-22T03:19:08.051Z,98213
2015-09-22T03:19:26.397Z,98204
2015-09-22T03:19:44.757Z,98202
2015-09-22T03:20:03.116Z,98202
2015-09-22T03:20:21.477Z,98204
2015-09-22T03:20:39.837Z,98202
2015-09-22T03:20:57.524Z,98204
2015-09-22T03:21:15.884Z,98207
2015-09-22T03:21:34.246Z,98204
2015-09-22T03:21:52.746Z,98196
2015-09-22T03:22:11.090Z,98199
2015-09-22T03:22:29.468Z,98207
2015-09-22T03:22:47.812Z,98204
2015-09-22T03:23:06.171Z,98193
2015-09-22T03:23:23.892Z,98199
2015-09-22T03:23:42.220Z,98199
2015-09-22T03:23:59.939Z,98199
2015-09-22T03:24:18.282Z,98204
2015-09-22T03:24:36.645Z,98199
2015-09-22T03:24:55.004Z,98202
2015-09-22T03:25:12.707Z,98193
2015-09-22T03:25:31.195Z,98190
2015-09-22T03:25:49.554Z,98202
2015-09-22T03:26:07.913Z,98202
2015-09-22T03:26:26.275Z,98196
2015-09-22T03:26:44.618Z,98202
2015-09-22T03:27:02.978Z,98193
2015-09-22T03:27:21.337Z,98202
2015-09-22T03:27:39.700Z,98202
2015-09-22T03:27:58.043Z,98199
2015-09-22T03:28:16.403Z,98213
2015-09-22T03:28:34.766Z,98188
2015-09-22T03:28:53.125Z,98193
2015-09-22T03:29:11.485Z,98190
2015-09-22T03:29:29.190Z,98199
2015-09-22T03:29:47.549Z,98190
2015-09-22T03:30:05.893Z,98193
2015-09-22T03:30:24.252Z,98202
2015-09-22T03:30:42.615Z,98196
2015-09-22T03:31:00.974Z,98196
2015-09-22T03:31:19.334Z,98202
2015-09-22T03:31:37.696Z,98204
2015-09-22T03:31:56.040Z,98193
2015-09-22T03:32:14.399Z,98196
2015-09-22T03:32:32.760Z,98207
2015-09-22T03:32:51.245Z,98190
2015-09-22T03:33:09.604Z,98193
2015-09-22T03:33:27.807Z,98190
2015-09-22T03:33:46.170Z,98188
2015-09-22T03:34:04.513Z,98190
2015-09-22T03:34:22.873Z,98193
2015-09-22T03:34:41.235Z,98182
2015-09-22T03:34:59.595Z,98182
2015-09-22T03:35:17.954Z,98193
2015-09-22T03:35:35.643Z,98185
2015-09-22T03:35:54.003Z,98187
2015-09-22T03:36:12.362Z,98187
2015-09-22T03:36:30.722Z,98190
2015-09-22T03:36:49.084Z,98185
2015-09-22T03:37:07.443Z,98179
2015-09-22T03:37:25.787Z,98185
2015-09-22T03:37:44.149Z,98179
2015-09-22T03:38:02.634Z,98185
2015-09-22T03:38:20.993Z,98179
2015-09-22T03:38:39.355Z,98182
2015-09-22T03:38:57.714Z,98179
2015-09-22T03:39:16.073Z,98185
2015-09-22T03:39:34.433Z,98173
2015-09-22T03:39:52.779Z,98173
2015-09-22T03:40:11.139Z,98179
2015-09-22T03:40:29.498Z,98179
2015-09-22T03:40:47.861Z,98179
2015-09-22T03:41:06.220Z,98179
2015-09-22T03:41:24.579Z,98179
2015-09-22T03:41:42.926Z,98168
2015-09-22T03:42:01.285Z,98176
2015-09-22T03:42:19.645Z,98168
2015-09-22T03:42:38.006Z,98190
2015-09-22T03:42:56.381Z,98173
2015-09-22T03:43:14.725Z,98176
2015-09-22T03:43:33.084Z,98179
2015-09-22T03:43:51.431Z,98171
2015-09-22T03:44:09.790Z,98176
2015-09-22T03:44:28.150Z,98182
2015-09-22T03:44:46.512Z,98173
2015-09-22T03:45:04.872Z,98173
2015-09-22T03:45:23.231Z,98185
2015-09-22T03:45:41.718Z,98168
2015-09-22T03:46:00.078Z,98168
2015-09-22T03:46:18.437Z,98165
2015-09-22T03:46:36.796Z,98171
2015-09-22T03:46:55.142Z,98176
2015-09-22T03:47:13.502Z,98165
2015-09-22T03:47:31.861Z,98179
2015-09-22T03:47:50.223Z,98171
2015-09-22T03:48:08.567Z,98159
2015-09-22T03:48:26.926Z,98176
2015-09-22T03:48:45.289Z,98173
2015-09-22T03:49:03.648Z,98165
2015-09-22T03:49:22.008Z,98179
2015-09-22T03:49:40.367Z,98165
2015-09-22T03:49:58.729Z,98162
2015-09-22T03:50:17.089Z,98168
2015-09-22T03:50:35.448Z,98173
2015-09-22T03:50:53.810Z,98162
2015-09-22T03:51:12.154Z,98165
2015-09-22T03:51:30.514Z,98173
2015-09-22T03:51:48.875Z,98159
2015-09-22T03:52:07.234Z,98168
2015-09-22T03:52:25.594Z,98162
2015-09-22T03:52:43.937Z,98171
2015-09-22T03:53:02.300Z,98171
2015-09-22T03:53:20.659Z,98162
2015-09-22T03:53:39.019Z,98159
2015-09-22T03:53:57.380Z,98162
2015-09-22T03:54:15.067Z,98165
2015-09-22T03:54:32.771Z,98165
2015-09-22T03:54:51.149Z,98162
2015-09-22T03:55:09.195Z,98159
2015-09-22T03:55:27.399Z,98159
2015-09-22T03:55:45.883Z,98162